createdAt,value
2018-12-25T00:00:10.818Z,71.83
2018-12-25T00:02:38.480Z,69.97
2018-12-25T00:05:06.230Z,78.53
2018-12-25T00:07:34.094Z,76.37
2018-12-25T00:10:01.781Z,72.97
2018-12-25T00:12:29.571Z,81.43
2018-12-25T00:14:57.453Z,80.80
2018-12-25T00:17:25.128Z,83.40
2018-12-25T00:19:53.503Z,88.37
2018-12-25T00:22:21.251Z,91.27
2018-12-25T00:24:49.308Z,90.23
2018-12-25T00:27:17.087Z,84.90
2018-12-25T00:29:45.235Z,84.40
2018-12-25T00:32:14.014Z,89.77
2018-12-25T00:34:41.754Z,98.27
2018-12-25T00:37:09.470Z,95.77
2018-12-25T00:39:37.183Z,103.27
2018-12-25T00:42:04.878Z,107.63
2018-12-25T00:44:33.336Z,105.70
2018-12-25T00:47:00.988Z,107.67
2018-12-25T00:49:28.691Z,113.77
2018-12-25T00:51:56.676Z,112.77
2018-12-25T00:54:24.562Z,111.97
2018-12-25T00:56:52.260Z,113.17
2018-12-25T00:59:20.120Z,118.80
2018-12-25T01:01:47.791Z,122.73
2018-12-25T01:04:15.630Z,133.33
2018-12-25T01:06:43.524Z,141.73
2018-12-25T01:09:11.306Z,141.93
2018-12-25T01:11:39.018Z,138.03
2018-12-25T01:14:06.729Z,153.63
2018-12-25T01:16:34.913Z,150.80
2018-12-25T01:19:02.613Z,152.37
2018-12-25T01:21:31.101Z,135.57
2018-12-25T01:23:58.810Z,141.27
2018-12-25T01:26:26.595Z,151.10
2018-12-25T01:28:54.914Z,137.10
2018-12-25T01:31:22.625Z,155.03
2018-12-25T01:33:50.750Z,156.50
2018-12-25T01:36:18.406Z,147.33
2018-12-25T01:38:46.587Z,142.47
2018-12-25T01:41:14.255Z,166.63
2018-12-25T01:43:42.380Z,165.60
2018-12-25T01:46:10.449Z,162.77
2018-12-25T01:48:38.243Z,164.27
2018-12-25T01:51:05.923Z,166.90
2018-12-25T01:53:33.627Z,161.70
2018-12-25T01:56:01.487Z,150.80
2018-12-25T01:58:29.437Z,160.67
2018-12-25T02:00:57.114Z,235.17
2018-12-25T02:03:25.015Z,196.80
2018-12-25T02:05:52.772Z,196.57
2018-12-25T02:08:20.793Z,196.77
2018-12-25T02:10:48.612Z,171.57
2018-12-25T02:13:16.343Z,182.17
2018-12-25T02:15:45.116Z,180.13
2018-12-25T02:18:12.809Z,182.97
2018-12-25T02:20:40.945Z,197.90
2018-12-25T02:23:09.120Z,222.97
2018-12-25T02:25:37.003Z,215.00
2018-12-25T02:28:04.691Z,225.57
2018-12-25T02:30:32.467Z,222.63
2018-12-25T02:33:00.527Z,222.77
2018-12-25T02:35:28.516Z,217.73
2018-12-25T02:37:56.449Z,224.80
2018-12-25T02:40:24.238Z,218.40
2018-12-25T02:42:52.000Z,223.00
2018-12-25T02:45:19.698Z,203.27
2018-12-25T02:47:47.331Z,211.83
2018-12-25T02:50:15.463Z,210.87
2018-12-25T02:52:43.147Z,213.73
2018-12-25T02:55:10.903Z,202.13
2018-12-25T02:57:38.658Z,202.57
2018-12-25T03:00:06.837Z,239.60
2018-12-25T03:02:34.906Z,241.57
2018-12-25T03:05:03.253Z,248.00
2018-12-25T03:07:31.347Z,303.80
2018-12-25T03:09:59.726Z,234.67
2018-12-25T03:12:27.734Z,261.97
2018-12-25T03:14:55.591Z,232.50
2018-12-25T03:17:23.252Z,246.87
2018-12-25T03:19:59.588Z,232.47
2018-12-25T03:22:20.519Z,240.80
2018-12-25T03:24:48.538Z,232.63
2018-12-25T03:27:16.159Z,253.37
2018-12-25T03:29:43.810Z,253.37
2018-12-25T03:32:11.774Z,281.93
2018-12-25T03:34:39.474Z,262.90
2018-12-25T03:37:07.531Z,244.53
2018-12-25T03:39:35.233Z,248.33
2018-12-25T03:42:03.075Z,242.50
2018-12-25T03:44:31.195Z,252.90
2018-12-25T03:46:59.263Z,238.17
2018-12-25T03:49:26.975Z,242.77
2018-12-25T03:51:54.656Z,249.50
2018-12-25T03:54:23.715Z,236.37
2018-12-25T03:56:51.835Z,240.20
2018-12-25T03:59:19.452Z,231.00
2018-12-25T04:01:47.473Z,244.23
2018-12-25T04:04:15.198Z,237.43
2018-12-25T04:06:42.951Z,247.93
2018-12-25T04:09:10.694Z,253.07
2018-12-25T04:11:38.984Z,254.30
2018-12-25T04:14:06.674Z,257.70
2018-12-25T04:16:34.615Z,250.77
2018-12-25T04:19:02.345Z,283.97
2018-12-25T04:21:30.159Z,286.37
2018-12-25T04:23:57.834Z,276.10
2018-12-25T04:26:25.668Z,261.97
2018-12-25T04:28:53.695Z,279.23
2018-12-25T04:31:21.615Z,277.17
2018-12-25T04:33:49.318Z,282.73
2018-12-25T04:36:17.046Z,308.87
2018-12-25T04:38:45.852Z,296.17
2018-12-25T04:41:14.126Z,280.07
2018-12-25T04:43:42.196Z,271.57
2018-12-25T04:46:10.145Z,275.00
2018-12-25T04:48:37.927Z,300.53
2018-12-25T04:51:05.630Z,294.10
2018-12-25T04:53:33.502Z,297.17
2018-12-25T04:56:01.580Z,277.87
2018-12-25T04:58:29.688Z,274.27
2018-12-25T05:00:57.270Z,290.53
2018-12-25T05:03:25.299Z,281.87
2018-12-25T05:05:53.179Z,283.70
2018-12-25T05:08:20.941Z,310.87
2018-12-25T05:10:48.718Z,310.27
2018-12-25T05:13:16.590Z,355.07
2018-12-25T05:15:44.290Z,348.90
2018-12-25T05:18:12.075Z,329.17
2018-12-25T05:20:39.893Z,321.23
2018-12-25T05:23:07.593Z,309.27
2018-12-25T05:25:35.530Z,319.57
2018-12-25T05:28:03.197Z,316.80
2018-12-25T05:30:31.093Z,289.50
2018-12-25T05:32:58.779Z,305.33
2018-12-25T05:35:26.867Z,295.07
2018-12-25T05:37:54.580Z,292.37
2018-12-25T05:40:22.250Z,277.40
2018-12-25T05:42:50.233Z,270.87
2018-12-25T05:45:18.409Z,269.17
2018-12-25T05:47:46.374Z,275.77
2018-12-25T05:50:14.122Z,248.93
2018-12-25T05:52:41.813Z,254.33
2018-12-25T05:55:09.851Z,269.40
2018-12-25T05:57:37.744Z,243.77
2018-12-25T06:00:06.051Z,285.63
2018-12-25T06:02:34.102Z,277.70
2018-12-25T06:05:01.867Z,306.90
2018-12-25T06:07:29.844Z,319.20
2018-12-25T06:09:57.549Z,314.93
2018-12-25T06:12:25.334Z,319.77
2018-12-25T06:14:53.028Z,301.10
2018-12-25T06:17:21.298Z,291.80
2018-12-25T06:19:49.049Z,297.37
2018-12-25T06:22:16.739Z,610.57
2018-12-25T06:24:44.642Z,294.43
2018-12-25T06:27:12.372Z,282.30
2018-12-25T06:29:40.410Z,276.30
2018-12-25T06:32:08.175Z,286.18
2018-12-25T06:34:35.862Z,298.80
2018-12-25T06:37:03.578Z,304.77
2018-12-25T06:39:31.420Z,281.70
2018-12-25T06:41:59.337Z,286.97
2018-12-25T06:44:28.183Z,253.23
2018-12-25T06:46:56.002Z,267.77
2018-12-25T06:49:23.736Z,288.70
2018-12-25T06:51:51.815Z,300.17
2018-12-25T06:54:19.895Z,303.33
2018-12-25T06:56:47.607Z,312.33
2018-12-25T06:59:16.031Z,326.00
2018-12-25T07:01:43.738Z,296.73
2018-12-25T07:04:11.842Z,310.77
2018-12-25T07:06:39.708Z,339.83
2018-12-25T07:09:07.369Z,352.50
2018-12-25T07:11:35.084Z,352.53
2018-12-25T07:14:02.895Z,325.33
2018-12-25T07:16:30.802Z,326.63
2018-12-25T07:18:58.843Z,311.70
2018-12-25T07:21:26.972Z,279.83
2018-12-25T07:23:55.038Z,284.33
2018-12-25T07:26:23.136Z,295.97
2018-12-25T07:28:50.819Z,322.33
2018-12-25T07:31:18.618Z,320.73
2018-12-25T07:33:46.310Z,325.33
2018-12-25T07:36:14.036Z,319.20
2018-12-25T07:38:41.721Z,335.83
2018-12-25T07:41:09.979Z,340.23
2018-12-25T07:43:38.052Z,318.43
2018-12-25T07:46:06.096Z,314.97
2018-12-25T07:48:33.949Z,317.70
2018-12-25T07:51:02.017Z,298.60
2018-12-25T07:53:30.517Z,319.17
2018-12-25T07:55:58.252Z,322.93
2018-12-25T07:58:26.541Z,328.47
2018-12-25T08:00:54.215Z,331.03
2018-12-25T08:03:22.209Z,329.07
2018-12-25T08:05:50.015Z,321.63
2018-12-25T08:08:18.196Z,326.97
2018-12-25T08:10:45.854Z,339.43
2018-12-25T08:13:14.052Z,312.83
2018-12-25T08:15:41.777Z,310.30
2018-12-25T08:18:09.447Z,301.93
2018-12-25T08:20:37.838Z,296.57
2018-12-25T08:23:05.494Z,303.80
2018-12-25T08:25:33.232Z,319.47
2018-12-25T08:28:01.315Z,307.13
2018-12-25T08:30:28.960Z,291.73
2018-12-25T08:32:56.608Z,303.97
2018-12-25T08:35:24.736Z,297.40
2018-12-25T08:37:52.429Z,298.47
2018-12-25T08:40:20.170Z,289.10
2018-12-25T08:42:47.864Z,280.10
2018-12-25T08:45:15.623Z,269.93
2018-12-25T08:47:43.651Z,275.37
2018-12-25T08:50:12.432Z,274.70
2018-12-25T08:52:40.123Z,297.93
2018-12-25T08:55:07.934Z,302.83
2018-12-25T08:57:35.630Z,291.07
2018-12-25T09:00:04.809Z,312.63
2018-12-25T09:02:32.900Z,299.60
2018-12-25T09:05:00.705Z,286.70
2018-12-25T09:07:28.375Z,291.23
2018-12-25T09:09:56.506Z,297.10
2018-12-25T09:12:24.212Z,311.03
2018-12-25T09:14:51.908Z,316.23
2018-12-25T09:17:19.778Z,317.57
2018-12-25T09:19:47.445Z,306.70
2018-12-25T09:22:15.380Z,315.30
2018-12-25T09:24:43.214Z,319.37
2018-12-25T09:27:11.321Z,307.60
2018-12-25T09:29:39.105Z,303.13
2018-12-25T09:32:07.370Z,297.90
2018-12-25T09:34:35.414Z,281.03
2018-12-25T09:37:03.762Z,267.83
2018-12-25T09:39:31.991Z,257.30
2018-12-25T09:41:59.689Z,261.17
2018-12-25T09:44:27.405Z,250.97
2018-12-25T09:46:55.368Z,240.07
2018-12-25T09:49:23.095Z,229.77
2018-12-25T09:51:54.548Z,218.33
2018-12-25T09:54:20.937Z,210.73
2018-12-25T09:56:49.711Z,213.73
2018-12-25T09:59:17.542Z,208.33
2018-12-25T10:01:45.219Z,186.30
2018-12-25T10:04:13.343Z,197.40
2018-12-25T10:06:41.007Z,181.40
2018-12-25T10:09:08.759Z,165.50
2018-12-25T10:11:44.150Z,164.00
2018-12-25T10:14:05.946Z,156.23
2018-12-25T10:16:34.275Z,148.53
2018-12-25T10:19:02.981Z,135.57
2018-12-25T10:21:31.076Z,124.73
2018-12-25T10:23:58.838Z,106.60
2018-12-25T10:26:26.990Z,105.40
2018-12-25T10:28:55.086Z,95.47
2018-12-25T10:31:22.811Z,79.00
2018-12-25T10:33:50.708Z,68.37
2018-12-25T10:36:18.461Z,65.73
2018-12-25T10:38:46.444Z,51.00
2018-12-25T10:41:14.491Z,50.70
2018-12-25T10:43:42.316Z,40.10
2018-12-25T10:46:10.106Z,37.90
2018-12-25T10:48:38.263Z,34.57
2018-12-25T10:51:05.910Z,32.37
2018-12-25T10:53:33.851Z,26.33
2018-12-25T10:56:01.814Z,24.10
2018-12-25T10:58:29.596Z,24.10
2018-12-25T11:01:01.477Z,23.87
2018-12-25T11:03:29.250Z,18.40
2018-12-25T11:05:57.120Z,22.63
2018-12-25T11:08:24.891Z,16.67
2018-12-25T11:10:52.669Z,16.37
2018-12-25T11:13:20.391Z,22.37
2018-12-25T11:15:48.366Z,17.23
2018-12-25T11:18:16.148Z,22.63
2018-12-25T11:20:44.285Z,16.23
2018-12-25T11:23:12.391Z,15.20
2018-12-25T11:25:40.106Z,17.33
2018-12-25T11:28:07.767Z,14.33
2018-12-25T11:30:35.785Z,15.17
2018-12-25T11:33:03.863Z,14.77
2018-12-25T11:35:32.288Z,12.83
2018-12-25T11:38:00.211Z,13.40
2018-12-25T11:40:28.347Z,13.93
2018-12-25T11:42:56.159Z,13.70
2018-12-25T11:45:24.082Z,12.70
2018-12-25T11:47:51.949Z,14.97
2018-12-25T11:50:19.814Z,12.97
2018-12-25T11:52:47.885Z,14.20
2018-12-25T11:55:15.901Z,13.73
2018-12-25T11:57:44.101Z,11.50
2018-12-25T12:00:12.383Z,9.37
2018-12-25T12:02:40.116Z,12.07
2018-12-25T12:05:07.836Z,11.07
2018-12-25T12:07:36.322Z,9.70
2018-12-25T12:10:04.509Z,11.93
2018-12-25T12:12:32.183Z,14.00
2018-12-25T12:15:00.030Z,14.30
2018-12-25T12:17:27.763Z,11.00
2018-12-25T12:19:55.495Z,10.23
2018-12-25T12:22:24.143Z,10.20
2018-12-25T12:24:52.610Z,9.43
2018-12-25T12:27:20.926Z,11.17
2018-12-25T12:29:49.033Z,10.50
2018-12-25T12:32:17.039Z,9.23
2018-12-25T12:34:45.014Z,13.33
2018-12-25T12:37:12.673Z,9.87
2018-12-25T12:39:40.434Z,11.47
2018-12-25T12:42:08.190Z,11.07
2018-12-25T12:44:36.127Z,11.47
2018-12-25T12:47:04.195Z,10.07
2018-12-25T12:49:31.893Z,13.77
2018-12-25T12:52:00.542Z,11.17
2018-12-25T12:54:28.214Z,10.17
2018-12-25T12:56:55.986Z,15.77
2018-12-25T12:59:23.733Z,10.80
2018-12-25T13:01:51.790Z,11.27
2018-12-25T13:04:19.798Z,10.43
2018-12-25T13:06:47.442Z,10.20
2018-12-25T13:09:15.173Z,11.97
2018-12-25T13:11:43.061Z,14.90
2018-12-25T13:14:10.779Z,11.87
2018-12-25T13:16:39.350Z,11.00
2018-12-25T13:19:07.181Z,10.60
2018-12-25T13:21:35.015Z,10.57
2018-12-25T13:24:03.993Z,10.17
2018-12-25T13:26:31.887Z,11.33
2018-12-25T13:29:00.254Z,11.80
2018-12-25T13:31:27.941Z,11.53
2018-12-25T13:33:56.015Z,12.43
2018-12-25T13:36:23.659Z,11.43
2018-12-25T13:38:51.804Z,14.10
2018-12-25T13:41:19.491Z,13.30
2018-12-25T13:43:47.314Z,12.83
2018-12-25T13:46:15.466Z,12.53
2018-12-25T13:48:43.257Z,14.60
2018-12-25T13:51:10.969Z,15.90
2018-12-25T13:53:39.046Z,13.90
2018-12-25T13:56:06.809Z,13.23
2018-12-25T13:58:34.642Z,15.63
2018-12-25T14:01:02.620Z,12.17
2018-12-25T14:03:30.475Z,11.60
2018-12-25T14:05:58.179Z,16.33
2018-12-25T14:08:25.978Z,11.17
2018-12-25T14:10:53.658Z,11.67
2018-12-25T14:13:21.643Z,13.53
2018-12-25T14:15:49.547Z,11.73
2018-12-25T14:18:17.210Z,14.23
2018-12-25T14:20:44.954Z,16.80
2018-12-25T14:23:13.071Z,15.77
2018-12-25T14:25:40.983Z,15.10
2018-12-25T14:28:08.811Z,12.77
2018-12-25T14:30:36.922Z,16.50
2018-12-25T14:33:04.740Z,13.33
2018-12-25T14:35:32.434Z,15.27
2018-12-25T14:38:00.305Z,14.73
2018-12-25T14:40:28.541Z,14.63
2018-12-25T14:42:56.252Z,13.83
2018-12-25T14:45:23.931Z,16.60
2018-12-25T14:47:51.673Z,14.63
2018-12-25T14:50:19.452Z,17.30
2018-12-25T14:52:47.547Z,16.50
2018-12-25T14:55:15.495Z,19.67
2018-12-25T14:57:43.204Z,22.63
2018-12-25T15:00:10.948Z,18.30
2018-12-25T15:02:38.736Z,21.63
2018-12-25T15:05:06.554Z,17.17
2018-12-25T15:07:34.578Z,21.17
2018-12-25T15:10:02.797Z,21.30
2018-12-25T15:12:30.809Z,23.70
2018-12-25T15:14:58.633Z,29.20
2018-12-25T15:17:26.608Z,23.13
2018-12-25T15:19:55.134Z,25.33
2018-12-25T15:22:22.790Z,29.20
2018-12-25T15:24:51.075Z,26.60
2018-12-25T15:27:18.996Z,24.63
2018-12-25T15:29:46.682Z,27.20
2018-12-25T15:32:14.980Z,30.73
2018-12-25T15:34:43.189Z,26.13
2018-12-25T15:37:11.119Z,23.60
2018-12-25T15:39:39.361Z,24.73
2018-12-25T15:42:07.537Z,24.63
2018-12-25T15:44:35.200Z,22.03
2018-12-25T15:47:03.172Z,22.43
2018-12-25T15:49:32.130Z,22.80
2018-12-25T15:51:59.846Z,22.30
2018-12-25T15:54:27.884Z,23.17
2018-12-25T15:56:56.754Z,27.47
2018-12-25T15:59:24.561Z,27.33
2018-12-25T16:01:52.317Z,29.40
2018-12-25T16:04:20.255Z,38.07
2018-12-25T16:06:48.078Z,39.80
2018-12-25T16:09:16.146Z,44.70
2018-12-25T16:11:44.181Z,40.60
2018-12-25T16:14:11.931Z,37.57
2018-12-25T16:16:39.872Z,46.40
2018-12-25T16:19:07.590Z,46.53
2018-12-25T16:21:35.412Z,51.70
2018-12-25T16:24:03.224Z,51.23
2018-12-25T16:26:31.435Z,49.30
2018-12-25T16:28:59.074Z,61.70
2018-12-25T16:31:27.222Z,68.07
2018-12-25T16:33:55.917Z,83.20
2018-12-25T16:36:23.677Z,81.57
2018-12-25T16:38:51.481Z,83.83
2018-12-25T16:41:19.628Z,85.47
2018-12-25T16:43:47.634Z,89.27
2018-12-25T16:46:15.345Z,107.83
2018-12-25T16:48:43.029Z,110.83
2018-12-25T16:51:12.137Z,126.03
2018-12-25T16:53:41.878Z,108.93
2018-12-25T16:56:09.784Z,103.77
2018-12-25T16:58:37.457Z,96.53
2018-12-25T17:01:05.489Z,102.13
2018-12-25T17:03:33.191Z,89.80
2018-12-25T17:06:01.239Z,102.33
2018-12-25T17:08:28.981Z,104.77
2018-12-25T17:10:56.639Z,110.03
2018-12-25T17:13:24.646Z,103.87
2018-12-25T17:15:52.324Z,107.40
2018-12-25T17:18:20.481Z,114.90
2018-12-25T17:20:48.551Z,115.10
2018-12-25T17:23:16.654Z,118.83
2018-12-25T17:25:44.712Z,137.23
2018-12-25T17:28:12.746Z,131.80
2018-12-25T17:30:40.397Z,135.90
2018-12-25T17:33:08.149Z,155.40
2018-12-25T17:35:36.093Z,162.10
2018-12-25T17:38:03.943Z,169.07
2018-12-25T17:40:31.616Z,173.47
2018-12-25T17:42:59.540Z,178.87
2018-12-25T17:45:27.256Z,172.47
2018-12-25T17:47:54.954Z,184.50
2018-12-25T17:50:23.067Z,186.10
2018-12-25T17:52:50.743Z,201.33
2018-12-25T17:55:21.018Z,196.00
2018-12-25T17:57:48.656Z,205.23
2018-12-25T18:00:16.339Z,200.63
2018-12-25T18:02:44.256Z,204.00
2018-12-25T18:05:12.275Z,196.63
2018-12-25T18:07:40.051Z,192.10
2018-12-25T18:10:08.009Z,183.23
2018-12-25T18:12:35.887Z,200.27
2018-12-25T18:15:04.410Z,191.17
2018-12-25T18:17:32.188Z,188.87
2018-12-25T18:20:01.306Z,197.17
2018-12-25T18:22:28.995Z,187.90
2018-12-25T18:24:56.712Z,209.57
2018-12-25T18:27:24.404Z,224.17
2018-12-25T18:29:52.134Z,227.53
2018-12-25T18:32:20.459Z,246.87
2018-12-25T18:34:48.490Z,220.77
2018-12-25T18:37:16.408Z,228.60
2018-12-25T18:39:52.387Z,215.73
2018-12-25T18:42:23.375Z,210.70
2018-12-25T18:44:50.330Z,213.30
2018-12-25T18:47:18.033Z,195.00
2018-12-25T18:49:45.785Z,199.90
2018-12-25T18:52:13.537Z,200.50
2018-12-25T18:54:41.214Z,205.00
2018-12-25T18:57:08.923Z,206.27
2018-12-25T18:59:36.912Z,230.50
2018-12-25T19:02:04.630Z,229.60
2018-12-25T19:04:32.707Z,246.53
2018-12-25T19:07:00.425Z,236.43
2018-12-25T19:09:28.151Z,235.93
2018-12-25T19:11:56.301Z,234.47
2018-12-25T19:14:24.695Z,244.53
2018-12-25T19:16:52.472Z,232.87
2018-12-25T19:19:20.525Z,229.30
2018-12-25T19:21:48.207Z,253.53
2018-12-25T19:24:15.942Z,247.23
2018-12-25T19:26:43.646Z,260.20
2018-12-25T19:29:11.510Z,244.40
2018-12-25T19:31:39.212Z,220.23
2018-12-25T19:34:06.904Z,225.73
2018-12-25T19:36:34.941Z,228.23
2018-12-25T19:39:03.593Z,227.60
2018-12-25T19:41:31.830Z,239.00
2018-12-25T19:43:59.535Z,240.93
2018-12-25T19:46:27.574Z,210.97
2018-12-25T19:48:55.573Z,248.60
2018-12-25T19:51:23.361Z,224.00
2018-12-25T19:53:51.166Z,239.67
2018-12-25T19:56:19.216Z,234.90
2018-12-25T19:58:47.938Z,224.30
2018-12-25T20:01:15.707Z,224.83
2018-12-25T20:03:45.635Z,230.27
2018-12-25T20:06:40.019Z,241.70
2018-12-25T20:09:25.924Z,240.50
2018-12-25T20:12:10.049Z,250.20
2018-12-25T20:14:59.979Z,243.93
2018-12-25T20:17:40.466Z,262.40
2018-12-25T20:20:40.073Z,282.50
2018-12-25T20:23:36.179Z,266.97
2018-12-25T20:26:19.565Z,290.07
2018-12-25T20:29:19.009Z,284.60
2018-12-25T20:32:24.480Z,309.93
2018-12-25T20:35:04.548Z,307.03
2018-12-25T20:37:51.183Z,312.23
2018-12-25T20:40:43.965Z,311.03
2018-12-25T20:43:37.306Z,322.20
2018-12-25T20:46:23.979Z,317.67
2018-12-25T20:49:07.126Z,329.90
2018-12-25T20:52:12.927Z,309.83
2018-12-25T20:55:01.122Z,324.53
2018-12-25T20:57:45.112Z,359.97
2018-12-25T21:00:34.097Z,428.43
2018-12-25T21:03:21.292Z,446.87
2018-12-25T21:06:11.460Z,470.13
2018-12-25T21:08:48.014Z,475.47
2018-12-25T21:11:41.391Z,515.03
2018-12-25T21:14:28.576Z,514.00
2018-12-25T21:17:15.776Z,493.97
2018-12-25T21:20:03.056Z,496.30
2018-12-25T21:22:49.343Z,493.13
2018-12-25T21:25:35.398Z,471.60
2018-12-25T21:28:02.633Z,402.80
2018-12-25T21:30:30.787Z,381.93
2018-12-25T21:32:58.480Z,383.17
2018-12-25T21:35:26.187Z,404.73
2018-12-25T21:37:55.715Z,379.87
2018-12-25T21:40:23.559Z,376.33
2018-12-25T21:42:52.495Z,392.00
2018-12-25T21:45:20.232Z,398.67
2018-12-25T21:47:48.630Z,402.77
2018-12-25T21:50:16.573Z,375.23
2018-12-25T21:52:44.611Z,365.23
2018-12-25T21:55:18.477Z,352.00
2018-12-25T21:57:42.398Z,354.60
2018-12-25T22:00:11.967Z,358.87
2018-12-25T22:02:40.031Z,360.37
2018-12-25T22:05:07.913Z,361.03
2018-12-25T22:07:35.812Z,359.73
2018-12-25T22:10:04.038Z,351.80
2018-12-25T22:12:31.789Z,354.27
2018-12-25T22:14:59.968Z,321.23
2018-12-25T22:17:28.035Z,337.07
2018-12-25T22:19:56.136Z,330.63
2018-12-25T22:22:24.151Z,357.80
2018-12-25T22:24:52.061Z,333.53
2018-12-25T22:27:20.221Z,357.53
2018-12-25T22:29:48.451Z,343.30
2018-12-25T22:32:16.481Z,375.67
2018-12-25T22:34:44.162Z,361.63
2018-12-25T22:37:11.937Z,358.37
2018-12-25T22:39:39.617Z,341.97
2018-12-25T22:42:09.401Z,339.87
2018-12-25T22:44:37.480Z,330.93
2018-12-25T22:47:05.664Z,332.13
2018-12-25T22:49:33.739Z,333.00
2018-12-25T22:52:02.075Z,345.50
2018-12-25T22:54:29.857Z,363.70
2018-12-25T22:56:57.736Z,332.80
2018-12-25T22:59:25.459Z,337.67
2018-12-25T23:01:53.228Z,333.30
2018-12-25T23:04:21.249Z,299.90
2018-12-25T23:06:50.307Z,342.07
2018-12-25T23:09:18.538Z,330.80
2018-12-25T23:11:46.408Z,328.10
2018-12-25T23:14:14.201Z,351.50
2018-12-25T23:16:41.953Z,353.17
2018-12-25T23:19:09.620Z,322.63
2018-12-25T23:21:37.342Z,345.10
2018-12-25T23:24:05.192Z,341.20
2018-12-25T23:26:32.920Z,350.30
2018-12-25T23:29:01.179Z,336.90
2018-12-25T23:31:29.594Z,336.93
2018-12-25T23:33:59.338Z,348.67
2018-12-25T23:36:27.525Z,383.87
2018-12-25T23:38:55.151Z,370.30
2018-12-25T23:41:23.611Z,368.13
2018-12-25T23:43:53.446Z,340.30
2018-12-25T23:46:21.184Z,321.40
2018-12-25T23:48:48.880Z,340.87
2018-12-25T23:51:17.789Z,348.07
2018-12-25T23:53:45.719Z,364.63
2018-12-25T23:56:13.801Z,357.57
2018-12-25T23:58:41.860Z,365.00
